TimeMST,TemperatureF,Dew PointF,Humidity,Sea Level PressureIn,VisibilityMPH,Wind Direction,Wind SpeedMPH,Gust SpeedMPH,PrecipitationIn,Events,Conditions,WindDirDegrees,DateUTC
12:15 AM,50.0,33.6,53,30.21,10.0,NNW,5.8,-,N/A,,Clear,330,2012-12-04 07:15:00
12:35 AM,48.6,31.3,51,30.20,10.0,NW,6.9,-,N/A,,Clear,310,2012-12-04 07:35:00
12:55 AM,48.2,28.8,47,30.21,10.0,NW,8.1,-,N/A,,Clear,320,2012-12-04 07:55:00
1:15 AM,49.1,29.7,47,30.21,10.0,NW,9.2,-,N/A,,Clear,320,2012-12-04 08:15:00
1:55 AM,48.7,30.6,50,30.22,10.0,NNW,6.9,-,N/A,,Clear,340,2012-12-04 08:55:00
2:15 AM,46.9,30.9,54,30.22,10.0,NNW,8.1,-,N/A,,Clear,340,2012-12-04 09:15:00
2:35 AM,46.0,31.1,56,30.23,10.0,NNW,5.8,-,N/A,,Clear,340,2012-12-04 09:35:00
3:15 AM,44.6,30.2,57,30.23,10.0,NW,4.6,-,N/A,,Clear,310,2012-12-04 10:15:00
3:35 AM,43.5,29.1,57,30.24,10.0,NW,5.8,-,N/A,,Clear,310,2012-12-04 10:35:00
3:55 AM,43.2,28.4,56,30.24,10.0,NNW,4.6,-,N/A,,Clear,340,2012-12-04 10:55:00
4:15 AM,42.8,28.4,57,30.25,10.0,NNE,4.6,-,N/A,,Clear,20,2012-12-04 11:15:00
4:35 AM,46.0,28.8,51,30.25,10.0,North,3.5,-,N/A,,Clear,360,2012-12-04 11:35:00
4:55 AM,47.1,28.8,49,30.25,10.0,NNW,6.9,-,N/A,,Clear,340,2012-12-04 11:55:00
5:15 AM,47.5,29.1,49,30.26,10.0,North,5.8,-,N/A,,Clear,350,2012-12-04 12:15:00
5:35 AM,46.4,29.3,51,30.27,10.0,North,6.9,-,N/A,,Clear,10,2012-12-04 12:35:00
5:55 AM,46.0,29.1,52,30.28,10.0,North,6.9,-,N/A,,Clear,10,2012-12-04 12:55:00
6:15 AM,46.0,29.1,52,30.29,10.0,NNW,9.2,-,N/A,,Clear,330,2012-12-04 13:15:00
6:35 AM,47.8,29.8,50,30.29,10.0,NNW,9.2,-,N/A,,Clear,340,2012-12-04 13:35:00
6:55 AM,47.5,30.0,51,30.30,10.0,NNW,9.2,-,N/A,,Clear,340,2012-12-04 13:55:00
7:15 AM,48.7,30.2,49,30.31,10.0,NNW,10.4,-,N/A,,Clear,330,2012-12-04 14:15:00
7:35 AM,49.8,30.4,47,30.31,10.0,NNW,10.4,-,N/A,,Clear,330,2012-12-04 14:35:00
7:55 AM,50.7,30.4,46,30.32,10.0,NNW,10.4,-,N/A,,Clear,330,2012-12-04 14:55:00
8:15 AM,52.3,30.4,43,30.33,10.0,NNW,12.7,-,N/A,,Clear,330,2012-12-04 15:15:00
8:35 AM,54.3,30.7,41,30.34,10.0,NNW,11.5,-,N/A,,Clear,340,2012-12-04 15:35:00
8:55 AM,54.9,31.1,40,30.35,10.0,NNW,17.3,-,N/A,,Clear,340,2012-12-04 15:55:00
9:15 AM,55.8,31.8,40,30.36,10.0,NNW,12.7,-,N/A,,Clear,340,2012-12-04 16:15:00
9:35 AM,57.7,31.3,37,30.36,10.0,North,13.8,19.6,N/A,,Clear,360,2012-12-04 16:35:00
9:55 AM,58.8,31.5,36,30.37,10.0,North,12.7,-,N/A,,Clear,350,2012-12-04 16:55:00
10:15 AM,59.9,31.6,34,30.37,10.0,NNW,11.5,-,N/A,,Clear,340,2012-12-04 17:15:00
10:35 AM,61.0,31.5,33,30.37,10.0,NNW,11.5,-,N/A,,Clear,340,2012-12-04 17:35:00
10:55 AM,62.4,30.7,30,30.38,10.0,North,11.5,-,N/A,,Clear,10,2012-12-04 17:55:00
11:15 AM,62.4,30.4,30,30.38,10.0,NNE,12.7,-,N/A,,Clear,20,2012-12-04 18:15:00
11:35 AM,63.1,30.2,29,30.37,10.0,NNE,11.5,16.1,N/A,,Clear,30,2012-12-04 18:35:00
11:55 AM,64.4,29.1,27,30.36,10.0,NNE,12.7,-,N/A,,Clear,30,2012-12-04 18:55:00
12:15 PM,64.4,28.4,26,30.36,10.0,NNE,11.5,-,N/A,,Clear,20,2012-12-04 19:15:00
12:35 PM,64.2,27.7,25,30.36,10.0,NNE,10.4,17.3,N/A,,Clear,20,2012-12-04 19:35:00
12:55 PM,64.9,27.0,24,30.35,10.0,NNE,10.4,-,N/A,,Clear,30,2012-12-04 19:55:00
1:15 PM,64.9,24.8,22,30.34,10.0,NNE,10.4,-,N/A,,Clear,30,2012-12-04 20:15:00
1:35 PM,65.7,24.6,21,30.33,10.0,North,8.1,-,N/A,,Clear,10,2012-12-04 20:35:00
1:55 PM,66.6,24.3,20,30.32,10.0,North,9.2,-,N/A,,Clear,10,2012-12-04 20:55:00
2:15 PM,66.7,23.7,20,30.32,10.0,East,5.8,-,N/A,,Clear,80,2012-12-04 21:15:00
2:35 PM,66.9,22.6,19,30.31,10.0,North,8.1,-,N/A,,Clear,10,2012-12-04 21:35:00
2:55 PM,66.2,23.2,20,30.30,10.0,NE,3.5,-,N/A,,Clear,40,2012-12-04 21:55:00
3:15 PM,66.2,22.3,19,30.30,10.0,NNE,3.5,-,N/A,,Clear,30,2012-12-04 22:15:00
3:35 PM,66.4,22.1,19,30.29,10.0,Calm,Calm,-,N/A,,Clear,0,2012-12-04 22:35:00
3:55 PM,66.6,21.2,18,30.29,10.0,Calm,Calm,-,N/A,,Clear,0,2012-12-04 22:55:00
4:15 PM,66.2,22.5,19,30.29,10.0,East,3.5,-,N/A,,Clear,90,2012-12-04 23:15:00
4:35 PM,64.8,23.9,21,30.29,10.0,SE,3.5,-,N/A,,Clear,140,2012-12-04 23:35:00
4:55 PM,62.8,23.9,23,30.31,10.0,SSE,6.9,-,N/A,,Clear,160,2012-12-04 23:55:00
5:15 PM,61.0,27.5,28,30.31,10.0,SSE,6.9,-,N/A,,Clear,160,2012-12-05 00:15:00
5:35 PM,58.8,26.6,29,30.31,10.0,SSE,4.6,-,N/A,,Clear,160,2012-12-05 00:35:00
5:55 PM,57.6,26.2,30,30.32,10.0,South,4.6,-,N/A,,Clear,170,2012-12-05 00:55:00
6:15 PM,54.7,25.0,32,30.32,10.0,Calm,Calm,-,N/A,,Clear,0,2012-12-05 01:15:00
6:35 PM,55.6,25.5,31,30.33,10.0,Calm,Calm,-,N/A,,Clear,0,2012-12-05 01:35:00
6:55 PM,54.0,24.4,32,30.33,10.0,Calm,Calm,-,N/A,,Clear,0,2012-12-05 01:55:00
7:15 PM,53.8,23.7,31,30.33,10.0,Calm,Calm,-,N/A,,Clear,0,2012-12-05 02:15:00
7:35 PM,51.4,23.0,33,30.33,10.0,Calm,Calm,-,N/A,,Clear,0,2012-12-05 02:35:00
7:55 PM,47.5,21.2,35,30.34,10.0,West,6.9,-,N/A,,Clear,280,2012-12-05 02:55:00
8:15 PM,47.5,21.7,36,30.34,10.0,West,5.8,-,N/A,,Clear,280,2012-12-05 03:15:00
8:35 PM,45.9,21.7,38,30.34,10.0,WNW,3.5,-,N/A,,Clear,300,2012-12-05 03:35:00
8:55 PM,45.3,21.9,40,30.35,10.0,WNW,4.6,-,N/A,,Clear,290,2012-12-05 03:55:00
9:15 PM,43.7,21.2,41,30.35,10.0,WNW,4.6,-,N/A,,Clear,290,2012-12-05 04:15:00
9:35 PM,42.8,20.7,41,30.35,10.0,WNW,4.6,-,N/A,,Clear,290,2012-12-05 04:35:00
9:55 PM,43.0,20.3,40,30.35,10.0,Calm,Calm,-,N/A,,Clear,0,2012-12-05 04:55:00
10:15 PM,43.7,20.8,40,30.35,10.0,Calm,Calm,-,N/A,,Clear,0,2012-12-05 05:15:00
10:35 PM,40.6,18.7,41,30.34,10.0,Calm,Calm,-,N/A,,Clear,0,2012-12-05 05:35:00
10:55 PM,40.3,19.2,43,30.34,10.0,Calm,Calm,-,N/A,,Clear,0,2012-12-05 05:55:00
11:15 PM,41.9,20.8,43,30.33,10.0,NNE,4.6,-,N/A,,Clear,20,2012-12-05 06:15:00
11:35 PM,42.3,21.0,43,30.32,10.0,North,5.8,-,N/A,,Clear,360,2012-12-05 06:35:00
11:55 PM,42.3,20.7,42,30.32,10.0,North,8.1,-,N/A,,Clear,350,2012-12-05 06:55:00